sensor_id;sensor_type;location;lat;lon;timestamp;P1;durP1;ratioP1;P2;durP2;ratioP2
65863;SDS011;52639;51.180;20.460;2023-09-19T00:05:22;19.52;;;12.90;;
65863;SDS011;52639;51.180;20.460;2023-09-19T00:09:28;19.50;;;12.60;;
65863;SDS011;52639;51.180;20.460;2023-09-19T00:13:31;16.23;;;10.90;;
65863;SDS011;52639;51.180;20.460;2023-09-19T00:38:11;17.27;;;11.80;;
65863;SDS011;52639;51.180;20.460;2023-09-19T00:43:07;15.40;;;11.02;;
65863;SDS011;52639;51.180;20.460;2023-09-19T00:53:41;15.95;;;10.25;;
65863;SDS011;52639;51.180;20.460;2023-09-19T01:14:11;15.30;;;9.80;;
65863;SDS011;52639;51.180;20.460;2023-09-19T01:56:05;17.73;;;9.88;;
65863;SDS011;52639;51.180;20.460;2023-09-19T02:00:30;15.38;;;10.48;;
65863;SDS011;52639;51.180;20.460;2023-09-19T02:29:34;22.92;;;14.18;;
65863;SDS011;52639;51.180;20.460;2023-09-19T02:33:49;16.17;;;11.10;;
65863;SDS011;52639;51.180;20.460;2023-09-19T02:37:52;19.55;;;10.63;;
65863;SDS011;52639;51.180;20.460;2023-09-19T02:42:30;17.38;;;10.30;;
65863;SDS011;52639;51.180;20.460;2023-09-19T02:51:55;15.68;;;11.35;;
65863;SDS011;52639;51.180;20.460;2023-09-19T02:56:12;16.25;;;10.07;;
65863;SDS011;52639;51.180;20.460;2023-09-19T03:00:19;14.88;;;10.35;;
65863;SDS011;52639;51.180;20.460;2023-09-19T03:19:10;11.38;;;8.88;;
65863;SDS011;52639;51.180;20.460;2023-09-19T03:23:18;13.15;;;8.73;;
65863;SDS011;52639;51.180;20.460;2023-09-19T04:09:46;12.90;;;8.35;;
65863;SDS011;52639;51.180;20.460;2023-09-19T04:18:12;12.70;;;8.60;;
65863;SDS011;52639;51.180;20.460;2023-09-19T04:22:15;11.38;;;8.35;;
65863;SDS011;52639;51.180;20.460;2023-09-19T04:26:20;11.23;;;8.02;;
65863;SDS011;52639;51.180;20.460;2023-09-19T05:10:45;15.70;;;9.30;;
65863;SDS011;52639;51.180;20.460;2023-09-19T07:28:02;30.25;;;19.95;;
65863;SDS011;52639;51.180;20.460;2023-09-19T07:42:11;26.98;;;18.73;;
65863;SDS011;52639;51.180;20.460;2023-09-19T07:46:56;32.97;;;20.60;;
65863;SDS011;52639;51.180;20.460;2023-09-19T08:02:07;26.52;;;18.75;;
65863;SDS011;52639;51.180;20.460;2023-09-19T08:06:17;24.70;;;17.95;;
65863;SDS011;52639;51.180;20.460;2023-09-19T08:30:56;24.80;;;18.42;;
65863;SDS011;52639;51.180;20.460;2023-09-19T08:56:12;21.60;;;15.52;;
65863;SDS011;52639;51.180;20.460;2023-09-19T09:04:45;25.92;;;17.73;;
65863;SDS011;52639;51.180;20.460;2023-09-19T09:08:52;24.00;;;15.73;;
65863;SDS011;52639;51.180;20.460;2023-09-19T09:33:11;31.40;;;18.60;;
65863;SDS011;52639;51.180;20.460;2023-09-19T09:37:31;31.60;;;20.40;;
65863;SDS011;52639;51.180;20.460;2023-09-19T09:41:40;35.70;;;20.95;;
65863;SDS011;52639;51.180;20.460;2023-09-19T10:27:28;24.95;;;15.93;;
65863;SDS011;52639;51.180;20.460;2023-09-19T10:35:39;27.35;;;16.55;;
65863;SDS011;52639;51.180;20.460;2023-09-19T10:39:45;24.63;;;15.57;;
65863;SDS011;52639;51.180;20.460;2023-09-19T10:44:03;23.73;;;15.45;;
65863;SDS011;52639;51.180;20.460;2023-09-19T10:58:09;20.95;;;13.50;;
65863;SDS011;52639;51.180;20.460;2023-09-19T11:02:23;27.05;;;15.07;;
65863;SDS011;52639;51.180;20.460;2023-09-19T11:06:42;21.95;;;14.48;;
65863;SDS011;52639;51.180;20.460;2023-09-19T11:16:07;22.52;;;13.05;;
65863;SDS011;52639;51.180;20.460;2023-09-19T12:01:03;12.23;;;6.53;;
65863;SDS011;52639;51.180;20.460;2023-09-19T12:14:38;10.50;;;6.75;;
65863;SDS011;52639;51.180;20.460;2023-09-19T12:19:36;9.43;;;6.82;;
65863;SDS011;52639;51.180;20.460;2023-09-19T12:24:14;11.43;;;6.90;;
65863;SDS011;52639;51.180;20.460;2023-09-19T12:34:12;12.30;;;7.22;;
65863;SDS011;52639;51.180;20.460;2023-09-19T12:39:23;12.23;;;7.50;;
65863;SDS011;52639;51.180;20.460;2023-09-19T12:49:23;11.90;;;7.90;;
65863;SDS011;52639;51.180;20.460;2023-09-19T12:53:59;9.55;;;7.32;;
65863;SDS011;52639;51.180;20.460;2023-09-19T12:58:12;9.45;;;7.55;;
65863;SDS011;52639;51.180;20.460;2023-09-19T13:28:11;11.40;;;7.40;;
65863;SDS011;52639;51.180;20.460;2023-09-19T13:32:31;13.88;;;7.85;;
65863;SDS011;52639;51.180;20.460;2023-09-19T13:41:53;10.90;;;7.38;;
65863;SDS011;52639;51.180;20.460;2023-09-19T13:46:07;12.38;;;7.50;;
65863;SDS011;52639;51.180;20.460;2023-09-19T13:50:54;14.30;;;7.40;;
65863;SDS011;52639;51.180;20.460;2023-09-19T13:55:36;11.15;;;7.55;;
65863;SDS011;52639;51.180;20.460;2023-09-19T14:14:10;13.38;;;8.77;;
65863;SDS011;52639;51.180;20.460;2023-09-19T14:18:41;10.30;;;8.02;;
65863;SDS011;52639;51.180;20.460;2023-09-19T14:27:59;13.65;;;8.40;;
65863;SDS011;52639;51.180;20.460;2023-09-19T14:37:09;10.38;;;8.32;;
65863;SDS011;52639;51.180;20.460;2023-09-19T14:41:17;12.88;;;9.27;;
65863;SDS011;52639;51.180;20.460;2023-09-19T14:45:33;11.63;;;8.60;;
65863;SDS011;52639;51.180;20.460;2023-09-19T14:50:27;11.43;;;8.93;;
65863;SDS011;52639;51.180;20.460;2023-09-19T14:54:31;12.43;;;9.25;;
65863;SDS011;52639;51.180;20.460;2023-09-19T14:58:41;14.02;;;9.57;;
65863;SDS011;52639;51.180;20.460;2023-09-19T15:07:13;11.90;;;9.88;;
65863;SDS011;52639;51.180;20.460;2023-09-19T15:11:17;11.95;;;8.73;;
65863;SDS011;52639;51.180;20.460;2023-09-19T15:15:45;14.38;;;10.15;;
65863;SDS011;52639;51.180;20.460;2023-09-19T15:19:54;11.73;;;9.90;;
65863;SDS011;52639;51.180;20.460;2023-09-19T15:24:12;13.85;;;10.00;;
65863;SDS011;52639;51.180;20.460;2023-09-19T15:28:18;13.90;;;9.75;;
65863;SDS011;52639;51.180;20.460;2023-09-19T15:32:41;18.00;;;11.15;;
65863;SDS011;52639;51.180;20.460;2023-09-19T15:36:47;14.50;;;10.45;;
65863;SDS011;52639;51.180;20.460;2023-09-19T15:41:00;12.82;;;10.32;;
65863;SDS011;52639;51.180;20.460;2023-09-19T15:45:14;12.60;;;9.52;;
65863;SDS011;52639;51.180;20.460;2023-09-19T15:54:18;12.52;;;10.23;;
65863;SDS011;52639;51.180;20.460;2023-09-19T15:59:09;13.38;;;10.00;;
65863;SDS011;52639;51.180;20.460;2023-09-19T16:03:18;13.75;;;9.40;;
65863;SDS011;52639;51.180;20.460;2023-09-19T16:07:31;13.75;;;9.50;;
65863;SDS011;52639;51.180;20.460;2023-09-19T16:11:41;12.30;;;9.07;;
65863;SDS011;52639;51.180;20.460;2023-09-19T16:15:47;17.02;;;10.23;;
65863;SDS011;52639;51.180;20.460;2023-09-19T16:19:54;16.88;;;10.13;;
65863;SDS011;52639;51.180;20.460;2023-09-19T16:24:01;13.20;;;8.57;;
65863;SDS011;52639;51.180;20.460;2023-09-19T16:28:08;11.23;;;9.48;;
65863;SDS011;52639;51.180;20.460;2023-09-19T16:32:26;15.07;;;9.88;;
65863;SDS011;52639;51.180;20.460;2023-09-19T16:37:00;16.08;;;9.85;;
65863;SDS011;52639;51.180;20.460;2023-09-19T16:41:06;21.85;;;12.93;;
65863;SDS011;52639;51.180;20.460;2023-09-19T16:45:53;34.63;;;15.73;;
65863;SDS011;52639;51.180;20.460;2023-09-19T16:50:32;21.13;;;14.40;;
65863;SDS011;52639;51.180;20.460;2023-09-19T16:54:39;21.55;;;13.88;;
65863;SDS011;52639;51.180;20.460;2023-09-19T17:03:46;25.52;;;13.80;;
65863;SDS011;52639;51.180;20.460;2023-09-19T17:07:52;19.35;;;13.82;;
65863;SDS011;52639;51.180;20.460;2023-09-19T17:12:11;46.75;;;14.85;;
65863;SDS011;52639;51.180;20.460;2023-09-19T17:16:16;22.92;;;15.43;;
65863;SDS011;52639;51.180;20.460;2023-09-19T17:20:34;29.23;;;16.67;;
65863;SDS011;52639;51.180;20.460;2023-09-19T17:24:46;26.67;;;17.33;;
65863;SDS011;52639;51.180;20.460;2023-09-19T17:28:52;30.02;;;19.33;;
65863;SDS011;52639;51.180;20.460;2023-09-19T17:33:14;37.25;;;20.20;;
65863;SDS011;52639;51.180;20.460;2023-09-19T17:37:20;38.97;;;21.33;;
65863;SDS011;52639;51.180;20.460;2023-09-19T17:41:25;46.85;;;23.48;;
65863;SDS011;52639;51.180;20.460;2023-09-19T17:55:44;43.28;;;22.85;;
65863;SDS011;52639;51.180;20.460;2023-09-19T17:59:50;38.53;;;21.25;;
65863;SDS011;52639;51.180;20.460;2023-09-19T18:03:58;40.97;;;21.45;;
65863;SDS011;52639;51.180;20.460;2023-09-19T18:08:05;51.00;;;21.63;;
65863;SDS011;52639;51.180;20.460;2023-09-19T18:12:17;205.53;;;25.03;;
65863;SDS011;52639;51.180;20.460;2023-09-19T18:16:23;41.95;;;21.38;;
65863;SDS011;52639;51.180;20.460;2023-09-19T18:20:28;43.88;;;21.85;;
65863;SDS011;52639;51.180;20.460;2023-09-19T18:24:39;67.47;;;22.20;;
65863;SDS011;52639;51.180;20.460;2023-09-19T18:28:47;51.97;;;24.38;;
65863;SDS011;52639;51.180;20.460;2023-09-19T18:32:54;54.78;;;23.55;;
65863;SDS011;52639;51.180;20.460;2023-09-19T18:36:59;323.73;;;27.38;;
65863;SDS011;52639;51.180;20.460;2023-09-19T18:41:07;52.22;;;24.27;;
65863;SDS011;52639;51.180;20.460;2023-09-19T18:45:36;59.72;;;23.58;;
65863;SDS011;52639;51.180;20.460;2023-09-19T18:49:44;46.28;;;23.35;;
65863;SDS011;52639;51.180;20.460;2023-09-19T18:53:49;77.90;;;29.75;;
65863;SDS011;52639;51.180;20.460;2023-09-19T18:57:54;218.23;;;38.00;;
65863;SDS011;52639;51.180;20.460;2023-09-19T19:06:08;126.32;;;42.30;;
65863;SDS011;52639;51.180;20.460;2023-09-19T19:10:14;130.38;;;43.03;;
65863;SDS011;52639;51.180;20.460;2023-09-19T19:18:58;157.43;;;38.45;;
65863;SDS011;52639;51.180;20.460;2023-09-19T19:23:09;164.30;;;44.72;;
65863;SDS011;52639;51.180;20.460;2023-09-19T19:27:14;102.05;;;33.40;;
65863;SDS011;52639;51.180;20.460;2023-09-19T19:31:21;151.32;;;44.13;;
65863;SDS011;52639;51.180;20.460;2023-09-19T19:35:30;125.22;;;35.97;;
65863;SDS011;52639;51.180;20.460;2023-09-19T19:44:00;94.05;;;26.90;;
65863;SDS011;52639;51.180;20.460;2023-09-19T19:48:06;171.60;;;26.52;;
65863;SDS011;52639;51.180;20.460;2023-09-19T19:52:16;117.20;;;25.85;;
65863;SDS011;52639;51.180;20.460;2023-09-19T19:56:33;175.02;;;42.65;;
65863;SDS011;52639;51.180;20.460;2023-09-19T20:00:44;103.22;;;24.25;;
65863;SDS011;52639;51.180;20.460;2023-09-19T20:04:48;328.40;;;25.30;;
65863;SDS011;52639;51.180;20.460;2023-09-19T20:08:54;201.82;;;25.90;;
65863;SDS011;52639;51.180;20.460;2023-09-19T20:13:05;84.93;;;20.85;;
65863;SDS011;52639;51.180;20.460;2023-09-19T20:17:28;162.88;;;20.20;;
65863;SDS011;52639;51.180;20.460;2023-09-19T20:21:32;48.42;;;17.98;;
65863;SDS011;52639;51.180;20.460;2023-09-19T20:25:37;56.53;;;18.67;;
65863;SDS011;52639;51.180;20.460;2023-09-19T20:34:53;50.80;;;19.63;;
65863;SDS011;52639;51.180;20.460;2023-09-19T20:39:01;46.67;;;17.50;;
65863;SDS011;52639;51.180;20.460;2023-09-19T20:43:38;48.40;;;16.42;;
65863;SDS011;52639;51.180;20.460;2023-09-19T20:47:58;42.13;;;16.17;;
65863;SDS011;52639;51.180;20.460;2023-09-19T20:52:02;48.50;;;16.98;;
65863;SDS011;52639;51.180;20.460;2023-09-19T20:56:15;47.78;;;16.77;;
65863;SDS011;52639;51.180;20.460;2023-09-19T21:00:19;47.63;;;17.90;;
65863;SDS011;52639;51.180;20.460;2023-09-19T21:09:16;47.85;;;16.67;;
65863;SDS011;52639;51.180;20.460;2023-09-19T21:13:30;45.00;;;17.15;;
65863;SDS011;52639;51.180;20.460;2023-09-19T21:17:33;39.28;;;16.38;;
65863;SDS011;52639;51.180;20.460;2023-09-19T21:21:44;43.28;;;15.88;;
65863;SDS011;52639;51.180;20.460;2023-09-19T21:25:53;40.92;;;16.38;;
65863;SDS011;52639;51.180;20.460;2023-09-19T21:30:05;38.45;;;18.05;;
65863;SDS011;52639;51.180;20.460;2023-09-19T21:34:21;40.45;;;16.60;;
65863;SDS011;52639;51.180;20.460;2023-09-19T21:43:21;42.50;;;16.77;;
65863;SDS011;52639;51.180;20.460;2023-09-19T21:47:33;41.13;;;17.60;;
65863;SDS011;52639;51.180;20.460;2023-09-19T21:56:02;32.92;;;14.23;;
65863;SDS011;52639;51.180;20.460;2023-09-19T22:00:07;32.70;;;15.35;;
65863;SDS011;52639;51.180;20.460;2023-09-19T22:04:40;38.55;;;15.10;;
65863;SDS011;52639;51.180;20.460;2023-09-19T22:08:43;32.67;;;14.55;;
65863;SDS011;52639;51.180;20.460;2023-09-19T22:22:47;35.85;;;14.10;;
65863;SDS011;52639;51.180;20.460;2023-09-19T22:27:12;35.63;;;13.57;;
65863;SDS011;52639;51.180;20.460;2023-09-19T22:31:26;30.58;;;13.93;;
65863;SDS011;52639;51.180;20.460;2023-09-19T22:35:55;35.92;;;15.20;;
65863;SDS011;52639;51.180;20.460;2023-09-19T22:40:10;33.72;;;14.43;;
65863;SDS011;52639;51.180;20.460;2023-09-19T22:44:37;31.30;;;14.68;;
65863;SDS011;52639;51.180;20.460;2023-09-19T22:48:49;35.83;;;15.88;;
65863;SDS011;52639;51.180;20.460;2023-09-19T22:53:04;33.92;;;14.95;;
65863;SDS011;52639;51.180;20.460;2023-09-19T22:57:09;30.70;;;13.20;;
65863;SDS011;52639;51.180;20.460;2023-09-19T23:01:31;33.90;;;14.30;;
65863;SDS011;52639;51.180;20.460;2023-09-19T23:05:51;33.20;;;14.23;;
65863;SDS011;52639;51.180;20.460;2023-09-19T23:10:08;40.78;;;16.33;;
65863;SDS011;52639;51.180;20.460;2023-09-19T23:14:20;43.67;;;16.27;;
65863;SDS011;52639;51.180;20.460;2023-09-19T23:18:26;34.17;;;16.25;;
65863;SDS011;52639;51.180;20.460;2023-09-19T23:36:12;36.20;;;14.70;;
65863;SDS011;52639;51.180;20.460;2023-09-19T23:40:27;35.83;;;15.18;;
65863;SDS011;52639;51.180;20.460;2023-09-19T23:44:31;37.80;;;15.35;;
65863;SDS011;52639;51.180;20.460;2023-09-19T23:58:58;33.75;;;14.65;;
